createdAt,value
2018-04-14T00:01:58.518Z,8.77
2018-04-14T00:04:25.102Z,8.50
2018-04-14T00:06:51.653Z,7.80
2018-04-14T00:09:18.213Z,9.27
2018-04-14T00:11:44.788Z,9.63
2018-04-14T00:14:11.354Z,9.90
2018-04-14T00:16:37.921Z,13.03
2018-04-14T00:19:04.521Z,8.13
2018-04-14T00:21:31.129Z,7.90
2018-04-14T00:23:57.675Z,10.27
2018-04-14T00:26:24.254Z,8.63
2018-04-14T00:28:50.825Z,9.00
2018-04-14T00:31:17.397Z,13.47
2018-04-14T00:33:44.245Z,10.53
2018-04-14T00:36:10.804Z,9.20
2018-04-14T00:38:37.432Z,9.50
2018-04-14T00:41:03.982Z,9.50
2018-04-14T00:43:30.549Z,9.40
2018-04-14T00:45:57.130Z,9.80
2018-04-14T00:48:23.691Z,9.40
2018-04-14T00:50:50.261Z,11.03
2018-04-14T00:53:22.837Z,16.43
2018-04-14T00:55:49.405Z,8.80
2018-04-14T00:58:15.978Z,9.13
2018-04-14T01:00:42.546Z,13.30
2018-04-14T01:03:09.133Z,9.33
2018-04-14T01:05:35.710Z,10.97
2018-04-14T01:08:02.277Z,11.00
2018-04-14T01:10:28.845Z,9.17
2018-04-14T01:12:55.417Z,12.47
2018-04-14T01:15:22.009Z,9.37
2018-04-14T01:17:48.583Z,14.60
2018-04-14T01:20:15.147Z,9.20
2018-04-14T01:22:41.758Z,8.10
2018-04-14T01:25:08.277Z,9.43
2018-04-14T01:27:34.846Z,7.43
2018-04-14T01:30:01.411Z,8.07
2018-04-14T01:32:28.026Z,7.87
2018-04-14T01:34:54.545Z,12.00
2018-04-14T01:37:21.140Z,8.53
2018-04-14T01:39:47.685Z,8.23
2018-04-14T01:42:14.257Z,10.37
2018-04-14T01:44:40.835Z,11.60
2018-04-14T01:47:07.404Z,7.13
2018-04-14T01:49:33.969Z,9.43
2018-04-14T01:52:00.537Z,6.93
2018-04-14T01:54:27.101Z,7.57
2018-04-14T01:56:53.682Z,6.37
2018-04-14T01:59:20.243Z,10.20
2018-04-14T02:01:46.818Z,6.27
2018-04-14T02:04:13.382Z,6.10
2018-04-14T02:06:39.954Z,8.20
2018-04-14T02:09:06.525Z,5.97
2018-04-14T02:11:33.085Z,6.17
2018-04-14T02:13:59.661Z,6.23
2018-04-14T02:16:26.230Z,6.77
2018-04-14T02:18:52.805Z,5.40
2018-04-14T02:21:19.369Z,6.00
2018-04-14T02:23:45.933Z,5.70
2018-04-14T02:26:12.512Z,5.70
2018-04-14T02:28:39.077Z,6.00
2018-04-14T02:31:05.641Z,5.63
2018-04-14T02:33:32.206Z,6.03
2018-04-14T02:35:58.785Z,8.33
2018-04-14T02:38:25.353Z,8.93
2018-04-14T02:40:51.921Z,11.13
2018-04-14T02:43:18.490Z,5.70
2018-04-14T02:45:45.898Z,6.00
2018-04-14T02:48:12.477Z,5.70
2018-04-14T02:50:39.041Z,6.47
2018-04-14T02:53:05.644Z,7.13
2018-04-14T02:55:32.208Z,5.40
2018-04-14T02:57:58.773Z,9.33
2018-04-14T03:00:25.346Z,4.97
2018-04-14T03:02:51.904Z,6.13
2018-04-14T03:05:18.481Z,5.40
2018-04-14T03:07:45.102Z,7.87
2018-04-14T03:10:11.689Z,6.07
2018-04-14T03:12:38.275Z,6.23
2018-04-14T03:15:04.845Z,10.33
2018-04-14T03:17:31.416Z,6.27
2018-04-14T03:19:57.973Z,5.70
2018-04-14T03:22:24.541Z,6.23
2018-04-14T03:24:51.106Z,5.50
2018-04-14T03:27:17.716Z,5.47
2018-04-14T03:29:44.265Z,5.30
2018-04-14T03:32:10.834Z,7.17
2018-04-14T03:34:37.400Z,5.43
2018-04-14T03:37:03.966Z,8.10
2018-04-14T03:39:30.534Z,5.30
2018-04-14T03:41:57.105Z,5.40
2018-04-14T03:44:23.672Z,6.17
2018-04-14T03:46:50.237Z,5.43
2018-04-14T03:49:16.818Z,5.10
2018-04-14T03:51:43.385Z,5.10
2018-04-14T03:54:09.959Z,5.50
2018-04-14T03:56:36.525Z,7.60
2018-04-14T03:59:03.094Z,5.40
2018-04-14T04:01:29.697Z,4.93
2018-04-14T04:03:56.265Z,5.33
2018-04-14T04:06:22.833Z,4.43
2018-04-14T04:08:49.409Z,5.30
2018-04-14T04:11:15.974Z,6.73
2018-04-14T04:13:42.537Z,6.30
2018-04-14T04:16:09.113Z,4.90
2018-04-14T04:18:41.513Z,7.80
2018-04-14T04:21:13.894Z,5.17
2018-04-14T04:23:46.321Z,6.27
2018-04-14T04:26:12.895Z,5.50
2018-04-14T04:28:39.453Z,8.40
2018-04-14T04:31:06.025Z,6.50
2018-04-14T04:33:32.589Z,7.77
2018-04-14T04:35:59.182Z,8.33
2018-04-14T04:38:25.741Z,6.50
2018-04-14T04:40:52.306Z,4.97
2018-04-14T04:43:18.873Z,4.60
2018-04-14T04:45:45.442Z,5.40
2018-04-14T04:48:12.013Z,4.77
2018-04-14T04:50:38.585Z,5.43
2018-04-14T04:53:05.160Z,6.23
2018-04-14T04:55:31.717Z,5.70
2018-04-14T04:57:58.285Z,6.37
2018-04-14T05:00:24.854Z,5.07
2018-04-14T05:02:51.420Z,4.53
2018-04-14T05:05:17.993Z,5.50
2018-04-14T05:07:44.559Z,5.50
2018-04-14T05:10:11.422Z,5.10
2018-04-14T05:12:37.985Z,5.30
2018-04-14T05:15:04.549Z,4.87
2018-04-14T05:17:31.125Z,5.70
2018-04-14T05:19:57.721Z,5.67
2018-04-14T05:22:24.268Z,4.80
2018-04-14T05:24:50.838Z,5.37
2018-04-14T05:27:17.413Z,5.40
2018-04-14T05:29:43.982Z,12.10
2018-04-14T05:32:10.550Z,5.40
2018-04-14T05:34:37.123Z,6.37
2018-04-14T05:37:03.685Z,5.47
2018-04-14T05:39:30.252Z,5.90
2018-04-14T05:41:56.825Z,5.37
2018-04-14T05:44:23.705Z,5.57
2018-04-14T05:46:50.270Z,5.40
2018-04-14T05:49:16.862Z,8.00
2018-04-14T05:51:43.433Z,5.13
2018-04-14T05:54:10.002Z,5.00
2018-04-14T05:56:36.591Z,5.17
2018-04-14T05:59:03.150Z,6.03
2018-04-14T06:01:29.721Z,5.33
2018-04-14T06:03:56.292Z,4.50
2018-04-14T06:06:22.860Z,5.20
2018-04-14T06:08:49.436Z,5.13
2018-04-14T06:11:16.033Z,4.80
2018-04-14T06:13:42.683Z,5.20
2018-04-14T06:16:09.231Z,5.10
2018-04-14T06:18:35.797Z,6.70
2018-04-14T06:21:02.373Z,5.97
2018-04-14T06:23:28.941Z,6.07
2018-04-14T06:25:55.519Z,7.13
2018-04-14T06:28:22.082Z,6.93
2018-04-14T06:30:48.673Z,7.20
2018-04-14T06:33:15.273Z,6.47
2018-04-14T06:35:41.821Z,8.17
2018-04-14T06:38:08.397Z,7.03
2018-04-14T06:40:34.961Z,6.37
2018-04-14T06:43:01.542Z,6.50
2018-04-14T06:45:28.114Z,6.10
2018-04-14T06:47:54.689Z,6.57
2018-04-14T06:50:21.261Z,6.40
2018-04-14T06:52:47.825Z,6.37
2018-04-14T06:55:14.402Z,6.53
2018-04-14T06:57:40.965Z,5.97
2018-04-14T07:00:07.579Z,6.10
2018-04-14T07:02:34.157Z,6.90
2018-04-14T07:05:00.725Z,5.90
2018-04-14T07:07:27.308Z,7.93
2018-04-14T07:09:53.867Z,5.83
2018-04-14T07:12:20.437Z,6.90
2018-04-14T07:14:47.001Z,5.30
2018-04-14T07:17:13.575Z,5.03
2018-04-14T07:19:40.149Z,7.80
2018-04-14T07:22:06.713Z,6.17
2018-04-14T07:24:33.290Z,5.53
2018-04-14T07:26:59.867Z,7.53
2018-04-14T07:29:26.443Z,7.07
2018-04-14T07:31:53.010Z,7.07
2018-04-14T07:34:19.585Z,7.10
2018-04-14T07:36:46.238Z,7.17
2018-04-14T07:39:12.791Z,11.27
2018-04-14T07:41:39.361Z,10.20
2018-04-14T07:44:05.930Z,9.60
2018-04-14T07:46:32.498Z,8.53
2018-04-14T07:48:59.077Z,9.30
2018-04-14T07:51:25.649Z,9.10
2018-04-14T07:53:52.241Z,12.60
2018-04-14T07:56:19.037Z,9.70
2018-04-14T07:58:45.605Z,11.47
2018-04-14T08:01:12.179Z,14.47
2018-04-14T08:03:38.757Z,11.73
2018-04-14T08:06:05.330Z,18.87
2018-04-14T08:08:31.918Z,14.20
2018-04-14T08:10:58.489Z,16.37
2018-04-14T08:13:25.081Z,18.20
2018-04-14T08:15:51.662Z,18.90
2018-04-14T08:18:18.247Z,19.03
2018-04-14T08:20:44.814Z,15.20
2018-04-14T08:23:11.389Z,14.60
2018-04-14T08:25:37.965Z,18.77
2018-04-14T08:28:04.814Z,20.67
2018-04-14T08:30:31.385Z,22.07
2018-04-14T08:32:57.993Z,27.07
2018-04-14T08:35:24.569Z,22.83
2018-04-14T08:37:51.153Z,20.90
2018-04-14T08:40:17.730Z,23.97
2018-04-14T08:42:44.301Z,21.80
2018-04-14T08:45:10.897Z,22.27
2018-04-14T08:47:37.517Z,26.73
2018-04-14T08:50:04.086Z,18.53
2018-04-14T08:52:30.669Z,27.43
2018-04-14T08:54:57.245Z,23.33
2018-04-14T08:57:23.830Z,30.03
2018-04-14T08:59:50.405Z,33.20
2018-04-14T09:02:16.987Z,35.30
2018-04-14T09:04:43.562Z,32.93
2018-04-14T09:07:10.157Z,31.20
2018-04-14T09:09:36.745Z,25.73
2018-04-14T09:12:03.317Z,31.60
2018-04-14T09:14:29.901Z,35.23
2018-04-14T09:16:56.466Z,29.07
2018-04-14T09:19:23.053Z,31.33
2018-04-14T09:21:49.645Z,39.00
2018-04-14T09:24:16.299Z,35.60
2018-04-14T09:26:42.870Z,33.50
2018-04-14T09:29:09.439Z,40.93
2018-04-14T09:31:36.090Z,40.10
2018-04-14T09:34:02.681Z,38.10
2018-04-14T09:36:29.260Z,34.57
2018-04-14T09:38:55.833Z,35.63
2018-04-14T09:41:22.455Z,38.60
2018-04-14T09:43:49.010Z,34.33
2018-04-14T09:46:15.585Z,37.63
2018-04-14T09:48:42.166Z,31.93
2018-04-14T09:51:08.732Z,32.20
2018-04-14T09:53:35.313Z,29.50
2018-04-14T09:56:01.890Z,32.80
2018-04-14T09:58:28.469Z,33.77
2018-04-14T10:01:00.953Z,29.33
2018-04-14T10:03:28.309Z,28.80
2018-04-14T10:05:54.908Z,32.77
2018-04-14T10:08:21.481Z,28.53
2018-04-14T10:10:48.067Z,26.57
2018-04-14T10:13:14.668Z,29.57
2018-04-14T10:15:41.228Z,29.80
2018-04-14T10:18:07.805Z,29.53
2018-04-14T10:20:34.377Z,26.50
2018-04-14T10:23:00.990Z,24.23
2018-04-14T10:25:27.593Z,23.70
2018-04-14T10:27:54.177Z,25.20
2018-04-14T10:30:20.752Z,26.70
2018-04-14T10:32:47.328Z,24.30
2018-04-14T10:35:13.915Z,19.87
2018-04-14T10:37:40.538Z,26.03
2018-04-14T10:40:07.114Z,34.40
2018-04-14T10:42:33.691Z,18.83
2018-04-14T10:45:00.270Z,19.77
2018-04-14T10:47:26.850Z,19.33
2018-04-14T10:49:53.421Z,20.60
2018-04-14T10:52:20.001Z,22.10
2018-04-14T10:54:46.581Z,21.60
2018-04-14T10:57:13.161Z,17.10
2018-04-14T10:59:39.741Z,16.67
2018-04-14T11:02:06.324Z,20.90
2018-04-14T11:04:32.893Z,18.23
2018-04-14T11:06:59.474Z,18.30
2018-04-14T11:09:26.062Z,15.87
2018-04-14T11:11:52.642Z,15.20
2018-04-14T11:14:19.222Z,19.17
2018-04-14T11:16:45.793Z,16.07
2018-04-14T11:19:12.379Z,15.90
2018-04-14T11:21:38.960Z,14.50
2018-04-14T11:24:05.529Z,17.40
2018-04-14T11:26:32.114Z,15.57
2018-04-14T11:28:58.697Z,11.90
2018-04-14T11:31:25.324Z,18.20
2018-04-14T11:33:51.877Z,18.17
2018-04-14T11:36:18.504Z,20.63
2018-04-14T11:38:45.054Z,19.13
2018-04-14T11:41:11.635Z,15.37
2018-04-14T11:43:38.217Z,18.60
2018-04-14T11:46:04.910Z,20.43
2018-04-14T11:48:31.486Z,20.00
2018-04-14T11:50:58.077Z,22.03
2018-04-14T11:53:24.668Z,19.50
2018-04-14T11:55:51.222Z,20.60
2018-04-14T11:58:17.853Z,19.00
2018-04-14T12:00:44.422Z,20.13
2018-04-14T12:03:11.000Z,22.03
2018-04-14T12:05:37.585Z,20.83
2018-04-14T12:08:04.221Z,24.13
2018-04-14T12:10:30.817Z,25.70
2018-04-14T12:12:57.389Z,21.77
2018-04-14T12:15:23.961Z,23.40
2018-04-14T12:17:50.545Z,21.30
2018-04-14T12:20:17.125Z,21.87
2018-04-14T12:22:43.740Z,20.67
2018-04-14T12:25:10.273Z,21.13
2018-04-14T12:27:36.918Z,18.93
2018-04-14T12:30:03.477Z,15.97
2018-04-14T12:32:30.054Z,21.23
2018-04-14T12:34:56.638Z,21.17
2018-04-14T12:37:23.217Z,20.93
2018-04-14T12:39:49.797Z,24.33
2018-04-14T12:42:16.745Z,23.77
2018-04-14T12:44:43.329Z,22.47
2018-04-14T12:47:09.905Z,20.67
2018-04-14T12:49:36.497Z,21.00
2018-04-14T12:52:03.080Z,22.53
2018-04-14T12:54:30.006Z,22.90
2018-04-14T12:56:56.601Z,22.57
2018-04-14T12:59:23.174Z,18.57
2018-04-14T13:01:49.770Z,20.70
2018-04-14T13:04:16.341Z,21.30
2018-04-14T13:06:42.926Z,17.63
2018-04-14T13:09:09.501Z,18.23
2018-04-14T13:11:36.076Z,19.67
2018-04-14T13:14:02.657Z,16.70
2018-04-14T13:16:29.233Z,19.20
2018-04-14T13:18:55.830Z,22.23
2018-04-14T13:21:22.410Z,20.27
2018-04-14T13:23:48.989Z,16.70
2018-04-14T13:26:15.566Z,18.23
2018-04-14T13:28:42.142Z,22.87
2018-04-14T13:31:08.719Z,16.57
2018-04-14T13:33:35.289Z,16.43
2018-04-14T13:36:01.876Z,14.50
2018-04-14T13:38:28.446Z,13.90
2018-04-14T13:40:55.033Z,14.37
2018-04-14T13:43:21.614Z,13.80
2018-04-14T13:45:48.185Z,20.50
2018-04-14T13:48:14.768Z,17.03
2018-04-14T13:50:41.342Z,16.73
2018-04-14T13:53:07.913Z,16.40
2018-04-14T13:55:34.489Z,18.00
2018-04-14T13:58:01.091Z,18.70
2018-04-14T14:00:27.670Z,22.10
2018-04-14T14:02:54.251Z,17.97
2018-04-14T14:05:20.826Z,17.30
2018-04-14T14:07:47.413Z,14.07
2018-04-14T14:10:14.002Z,16.63
2018-04-14T14:12:40.581Z,17.17
2018-04-14T14:15:07.157Z,17.07
2018-04-14T14:17:33.737Z,17.00
2018-04-14T14:20:00.321Z,14.93
2018-04-14T14:22:26.894Z,13.10
2018-04-14T14:24:53.517Z,10.97
2018-04-14T14:27:20.041Z,11.30
2018-04-14T14:29:46.619Z,14.53
2018-04-14T14:32:13.197Z,15.47
2018-04-14T14:34:39.766Z,14.50
2018-04-14T14:37:06.365Z,20.87
2018-04-14T14:39:32.945Z,21.17
2018-04-14T14:41:59.517Z,22.63
2018-04-14T14:44:26.098Z,21.20
2018-04-14T14:46:52.671Z,22.17
2018-04-14T14:49:19.253Z,22.70
2018-04-14T14:51:45.833Z,23.50
2018-04-14T14:54:12.406Z,22.13
2018-04-14T14:56:38.988Z,25.30
2018-04-14T14:59:05.571Z,23.37
2018-04-14T15:01:32.179Z,27.33
2018-04-14T15:03:58.781Z,32.27
2018-04-14T15:06:25.427Z,31.40
2018-04-14T15:08:52.002Z,28.73
2018-04-14T15:11:18.598Z,27.70
2018-04-14T15:13:45.169Z,24.30
2018-04-14T15:16:11.745Z,27.10
2018-04-14T15:18:38.325Z,29.40
2018-04-14T15:21:04.914Z,34.40
2018-04-14T15:23:31.482Z,34.50
2018-04-14T15:25:58.071Z,35.83
2018-04-14T15:28:24.673Z,40.40
2018-04-14T15:30:51.241Z,35.53
2018-04-14T15:33:17.821Z,42.03
2018-04-14T15:35:44.397Z,41.20
2018-04-14T15:38:10.993Z,39.13
2018-04-14T15:40:37.571Z,36.77
2018-04-14T15:43:04.141Z,40.97
2018-04-14T15:45:30.726Z,35.43
2018-04-14T15:47:57.302Z,37.57
2018-04-14T15:50:24.871Z,37.70
2018-04-14T15:52:51.434Z,35.67
2018-04-14T15:55:18.009Z,32.70
2018-04-14T15:57:44.606Z,30.10
2018-04-14T16:00:11.175Z,32.23
2018-04-14T16:02:37.761Z,35.93
2018-04-14T16:05:04.359Z,33.63
2018-04-14T16:07:30.929Z,36.03
2018-04-14T16:09:57.517Z,32.67
2018-04-14T16:12:24.094Z,33.90
2018-04-14T16:14:50.673Z,35.63
2018-04-14T16:17:17.244Z,38.00
2018-04-14T16:19:43.821Z,33.87
2018-04-14T16:22:10.397Z,37.87
2018-04-14T16:24:36.973Z,36.50
2018-04-14T16:27:03.558Z,33.07
2018-04-14T16:29:30.133Z,33.90
2018-04-14T16:31:56.700Z,30.33
2018-04-14T16:34:23.285Z,33.53
2018-04-14T16:36:49.960Z,28.77
2018-04-14T16:39:16.805Z,34.60
2018-04-14T16:41:44.765Z,30.87
2018-04-14T16:44:11.329Z,33.17
2018-04-14T16:46:37.909Z,27.70
2018-04-14T16:49:04.489Z,29.53
2018-04-14T16:51:31.077Z,32.67
2018-04-14T16:53:57.650Z,34.77
2018-04-14T16:56:24.233Z,31.70
2018-04-14T16:58:50.817Z,29.23
2018-04-14T17:01:17.442Z,28.07
2018-04-14T17:03:43.977Z,25.70
2018-04-14T17:06:10.553Z,28.60
2018-04-14T17:08:37.125Z,24.97
2018-04-14T17:11:03.708Z,27.03
2018-04-14T17:13:30.277Z,24.43
2018-04-14T17:15:56.872Z,28.23
2018-04-14T17:18:23.465Z,24.80
2018-04-14T17:20:50.037Z,28.10
2018-04-14T17:23:16.612Z,22.60
2018-04-14T17:25:43.274Z,21.10
2018-04-14T17:28:10.078Z,19.50
2018-04-14T17:30:36.656Z,18.60
2018-04-14T17:33:03.328Z,20.17
2018-04-14T17:35:29.886Z,19.57
2018-04-14T17:37:56.461Z,17.97
2018-04-14T17:40:23.045Z,16.80
2018-04-14T17:42:49.622Z,17.00
2018-04-14T17:45:16.197Z,20.43
2018-04-14T17:47:42.781Z,17.40
2018-04-14T17:50:09.357Z,18.50
2018-04-14T17:52:35.942Z,16.40
2018-04-14T17:55:02.517Z,22.30
2018-04-14T17:57:29.093Z,20.10
2018-04-14T17:59:55.674Z,16.87
2018-04-14T18:02:22.248Z,15.00
2018-04-14T18:04:48.840Z,20.43
2018-04-14T18:07:15.519Z,16.87
2018-04-14T18:09:42.068Z,20.63
2018-04-14T18:12:08.646Z,15.13
2018-04-14T18:14:35.221Z,16.47
2018-04-14T18:17:01.806Z,16.60
2018-04-14T18:19:28.381Z,13.97
2018-04-14T18:21:54.957Z,16.90
2018-04-14T18:24:21.551Z,18.17
2018-04-14T18:26:48.125Z,15.40
2018-04-14T18:29:15.997Z,13.73
2018-04-14T18:31:42.567Z,12.80
2018-04-14T18:34:09.141Z,13.10
2018-04-14T18:36:35.721Z,14.90
2018-04-14T18:39:02.302Z,15.53
2018-04-14T18:41:28.873Z,14.60
2018-04-14T18:43:55.449Z,14.50
2018-04-14T18:46:22.033Z,11.87
2018-04-14T18:48:48.589Z,14.43
2018-04-14T18:51:15.173Z,13.30
2018-04-14T18:53:41.741Z,14.30
2018-04-14T18:56:08.313Z,12.20
2018-04-14T18:58:34.901Z,16.33
2018-04-14T19:01:01.495Z,14.80
2018-04-14T19:03:28.241Z,17.07
2018-04-14T19:05:54.826Z,16.70
2018-04-14T19:08:21.469Z,16.97
2018-04-14T19:10:48.028Z,14.63
2018-04-14T19:13:14.605Z,14.87
2018-04-14T19:15:41.186Z,15.00
2018-04-14T19:18:07.762Z,18.00
2018-04-14T19:20:34.342Z,15.43
2018-04-14T19:23:00.920Z,19.57
2018-04-14T19:25:27.493Z,14.23
2018-04-14T19:27:54.071Z,20.20
2018-04-14T19:30:20.649Z,15.87
2018-04-14T19:32:47.224Z,16.83
2018-04-14T19:35:13.845Z,16.97
2018-04-14T19:37:40.456Z,22.90
2018-04-14T19:40:07.001Z,19.50
2018-04-14T19:42:33.623Z,17.43
2018-04-14T19:45:00.178Z,18.43
2018-04-14T19:47:26.759Z,22.47
2018-04-14T19:49:53.389Z,16.47
2018-04-14T19:52:19.969Z,20.50
2018-04-14T19:54:46.557Z,18.53
2018-04-14T19:57:13.136Z,17.60
2018-04-14T19:59:39.736Z,19.97
2018-04-14T20:02:06.303Z,18.50
2018-04-14T20:04:32.877Z,18.83
2018-04-14T20:06:59.496Z,19.40
2018-04-14T20:09:26.027Z,20.83
2018-04-14T20:11:52.613Z,23.87
2018-04-14T20:14:19.193Z,22.17
2018-04-14T20:16:45.772Z,17.63
2018-04-14T20:19:12.347Z,20.07
2018-04-14T20:21:38.925Z,17.13
2018-04-14T20:24:05.817Z,19.53
2018-04-14T20:26:32.377Z,17.60
2018-04-14T20:28:58.961Z,18.83
2018-04-14T20:31:25.548Z,19.73
2018-04-14T20:33:52.121Z,17.10
2018-04-14T20:36:18.722Z,15.47
2018-04-14T20:38:45.297Z,16.27
2018-04-14T20:41:11.895Z,19.47
2018-04-14T20:43:38.453Z,21.73
2018-04-14T20:46:05.814Z,23.07
2018-04-14T20:48:32.397Z,25.27
2018-04-14T20:50:58.969Z,20.03
2018-04-14T20:53:25.545Z,17.63
2018-04-14T20:55:52.255Z,19.00
2018-04-14T20:58:18.801Z,17.30
2018-04-14T21:00:45.381Z,18.97
2018-04-14T21:03:11.963Z,20.83
2018-04-14T21:05:38.534Z,23.57
2018-04-14T21:08:05.122Z,23.27
2018-04-14T21:10:31.725Z,24.67
2018-04-14T21:12:58.326Z,27.23
2018-04-14T21:15:24.903Z,27.10
2018-04-14T21:17:51.477Z,31.20
2018-04-14T21:20:18.058Z,29.70
2018-04-14T21:22:44.644Z,29.77
2018-04-14T21:25:11.226Z,24.67
2018-04-14T21:27:37.807Z,26.00
2018-04-14T21:30:04.390Z,21.93
2018-04-14T21:32:30.967Z,24.80
2018-04-14T21:34:57.537Z,26.53
2018-04-14T21:37:24.117Z,23.07
2018-04-14T21:39:50.693Z,23.70
2018-04-14T21:42:17.269Z,22.10
2018-04-14T21:44:43.844Z,23.47
2018-04-14T21:47:10.425Z,23.20
2018-04-14T21:49:37.017Z,22.00
2018-04-14T21:52:03.593Z,16.87
2018-04-14T21:54:30.166Z,16.43
2018-04-14T21:56:56.741Z,19.47
2018-04-14T21:59:23.313Z,16.80
2018-04-14T22:01:49.910Z,15.33
2018-04-14T22:04:16.478Z,17.53
2018-04-14T22:06:43.089Z,21.37
2018-04-14T22:09:09.677Z,17.03
2018-04-14T22:11:36.317Z,18.30
2018-04-14T22:14:02.909Z,16.27
2018-04-14T22:16:29.483Z,25.00
2018-04-14T22:18:56.055Z,13.43
2018-04-14T22:21:22.633Z,13.70
2018-04-14T22:23:49.209Z,11.83
2018-04-14T22:26:15.789Z,10.97
2018-04-14T22:28:42.359Z,12.90
2018-04-14T22:31:08.921Z,12.63
2018-04-14T22:33:35.505Z,12.53
2018-04-14T22:36:02.079Z,18.00
2018-04-14T22:38:28.666Z,20.93
2018-04-14T22:40:55.258Z,22.07
2018-04-14T22:43:21.862Z,17.73
2018-04-14T22:45:48.442Z,19.37
2018-04-14T22:48:15.017Z,22.17
2018-04-14T22:50:41.605Z,23.53
2018-04-14T22:53:08.177Z,24.70
2018-04-14T22:55:34.748Z,31.27
2018-04-14T22:58:01.326Z,25.10
2018-04-14T23:00:27.997Z,22.63
2018-04-14T23:02:54.884Z,24.03
2018-04-14T23:05:21.672Z,25.27
2018-04-14T23:07:48.229Z,29.63
2018-04-14T23:10:14.815Z,29.40
2018-04-14T23:12:41.381Z,34.57
2018-04-14T23:15:07.970Z,36.03
2018-04-14T23:17:34.562Z,32.90
2018-04-14T23:20:01.119Z,37.73
2018-04-14T23:22:27.707Z,38.30
2018-04-14T23:24:54.285Z,34.63
2018-04-14T23:27:20.888Z,34.00
2018-04-14T23:29:47.455Z,36.00
2018-04-14T23:32:14.035Z,38.70
2018-04-14T23:34:40.617Z,28.13
2018-04-14T23:37:07.198Z,24.10
2018-04-14T23:39:33.785Z,30.93
2018-04-14T23:42:00.361Z,23.03
2018-04-14T23:44:26.945Z,20.13
2018-04-14T23:46:53.525Z,20.83
2018-04-14T23:49:20.098Z,21.83
2018-04-14T23:51:46.678Z,20.73
